Time;durP1;ratioP1;P1;durP2;ratioP2;P2;SDS_P1;SDS_P2;PMS_P1;PMS_P2;Temp;Humidity;BMP_temperature;BMP_pressure;BME280_temperature;BME280_humidity;BME280_pressure;Samples;Min_cycle;Max_cycle;Signal;HPM_P1;HPM_P2
2024/02/05 00:01:04;;;;;;;23.13;4.97;;;10.60;99.90;;;;;;5096555;28;20132;-66
2024/02/05 00:03:31;;;;;;;20.55;4.20;;;10.60;99.90;;;;;;5091700;28;20159;-63
2024/02/05 00:05:58;;;;;;;35.45;5.10;;;10.60;99.90;;;;;;5100115;28;20044;-63
2024/02/05 00:08:25;;;;;;;40.70;5.55;;;10.60;99.90;;;;;;5094789;28;20048;-63
2024/02/05 00:10:51;;;;;;;20.02;3.33;;;10.60;99.90;;;;;;5095637;28;20112;-64
2024/02/05 00:13:19;;;;;;;28.80;3.90;;;10.60;99.90;;;;;;5087819;28;20450;-64
2024/02/05 00:15:47;;;;;;;29.48;4.55;;;10.60;99.90;;;;;;5095848;28;20046;-63
2024/02/05 00:18:14;;;;;;;22.20;4.25;;;10.60;99.90;;;;;;5094829;28;20071;-61
2024/02/05 00:20:41;;;;;;;27.33;3.72;;;10.50;99.90;;;;;;5089626;28;20047;-61
2024/02/05 00:23:08;;;;;;;24.90;5.32;;;10.50;99.90;;;;;;5093209;28;20055;-62
2024/02/05 00:25:37;;;;;;;33.05;7.00;;;10.50;99.90;;;;;;5092629;28;20438;-63
2024/02/05 00:28:04;;;;;;;18.70;3.70;;;10.50;99.90;;;;;;5095404;28;20152;-64
2024/02/05 00:30:31;;;;;;;23.17;4.07;;;10.50;99.90;;;;;;5090808;28;20044;-63
2024/02/05 00:32:58;;;;;;;26.80;4.15;;;10.50;99.90;;;;;;5092051;28;20051;-63
2024/02/05 00:35:25;;;;;;;18.20;4.63;;;10.50;99.90;;;;;;5094421;28;20135;-63
2024/02/05 00:37:53;;;;;;;27.45;4.88;;;10.50;99.90;;;;;;5094310;28;20073;-63
2024/02/05 00:40:20;;;;;;;26.42;3.90;;;10.60;99.90;;;;;;5097647;28;20069;-63
2024/02/05 00:42:47;;;;;;;22.50;4.75;;;10.50;99.90;;;;;;5104420;28;20052;-63
2024/02/05 00:45:15;;;;;;;33.25;5.20;;;10.50;99.90;;;;;;5099096;28;20051;-63
2024/02/05 00:47:41;;;;;;;26.13;4.25;;;10.50;99.90;;;;;;5098516;28;20043;-63
2024/02/05 00:50:09;;;;;;;22.45;5.70;;;10.50;99.90;;;;;;5095988;28;20066;-63
2024/02/05 00:52:36;;;;;;;23.23;4.88;;;10.50;99.90;;;;;;5105803;28;20088;-62
2024/02/05 00:55:04;;;;;;;24.80;4.13;;;10.50;99.90;;;;;;5096705;28;20185;-62
2024/02/05 00:57:31;;;;;;;28.75;4.90;;;10.40;99.90;;;;;;5103001;28;20055;-62
2024/02/05 00:59:58;;;;;;;35.60;4.15;;;10.50;99.90;;;;;;5098267;28;20101;-62
2024/02/05 01:02:26;;;;;;;20.15;3.50;;;10.40;99.90;;;;;;5096997;28;20362;-62
2024/02/05 01:04:52;;;;;;;20.15;3.70;;;10.40;99.90;;;;;;5103065;28;20108;-62
2024/02/05 01:07:19;;;;;;;24.45;4.32;;;10.40;99.90;;;;;;5091893;28;20126;-63
2024/02/05 01:09:46;;;;;;;34.45;5.40;;;10.40;99.90;;;;;;5104940;28;20044;-63
2024/02/05 01:12:13;;;;;;;19.55;4.55;;;10.40;99.90;;;;;;5102749;28;20096;-62
2024/02/05 01:14:40;;;;;;;23.30;5.07;;;10.40;99.90;;;;;;5101218;28;20119;-62
2024/02/05 01:17:08;;;;;;;25.35;4.68;;;10.40;99.90;;;;;;5095969;28;20052;-63
2024/02/05 01:19:35;;;;;;;24.10;4.32;;;10.40;99.90;;;;;;5101076;28;20040;-62
2024/02/05 01:22:04;;;;;;;21.00;3.78;;;10.40;99.90;;;;;;5098300;28;20126;-63
2024/02/05 01:24:31;;;;;;;24.85;4.47;;;10.40;99.90;;;;;;5103796;28;20047;-62
2024/02/05 01:26:58;;;;;;;27.05;6.72;;;10.40;99.90;;;;;;5093959;28;20051;-62
2024/02/05 01:29:24;;;;;;;28.48;5.57;;;10.40;99.90;;;;;;5085754;28;20062;-63
2024/02/05 01:31:51;;;;;;;26.60;6.13;;;10.40;99.90;;;;;;5094568;28;20052;-65
2024/02/05 01:34:18;;;;;;;26.85;4.38;;;10.30;99.90;;;;;;5094251;28;20068;-62
2024/02/05 01:36:45;;;;;;;23.75;5.38;;;10.40;99.90;;;;;;5091373;28;20083;-63
2024/02/05 01:39:12;;;;;;;22.48;4.78;;;10.40;99.90;;;;;;5099521;28;20117;-62
2024/02/05 01:41:39;;;;;;;41.20;5.97;;;10.40;99.90;;;;;;5093303;28;20203;-62
2024/02/05 01:44:06;;;;;;;33.03;5.70;;;10.40;99.90;;;;;;5091873;28;20048;-63
2024/02/05 01:46:33;;;;;;;16.75;3.25;;;10.40;99.90;;;;;;5096953;28;20073;-64
2024/02/05 01:49:02;;;;;;;31.17;5.38;;;10.40;99.90;;;;;;5095641;28;20779;-61
2024/02/05 01:51:30;;;;;;;26.30;4.57;;;10.40;99.90;;;;;;5094994;28;20442;-64
2024/02/05 01:53:57;;;;;;;21.17;4.72;;;10.40;99.90;;;;;;5071180;28;20537;-61
2024/02/05 01:56:27;;;;;;;24.33;4.80;;;10.40;99.90;;;;;;5097861;28;20058;-62
2024/02/05 01:58:54;;;;;;;26.30;4.38;;;10.40;99.90;;;;;;5092726;28;20052;-61
2024/02/05 02:01:21;;;;;;;20.80;6.15;;;10.40;99.90;;;;;;5092907;28;20035;-62
2024/02/05 02:03:48;;;;;;;24.77;5.53;;;10.40;99.90;;;;;;5087988;28;20091;-62
2024/02/05 02:06:15;;;;;;;29.65;4.75;;;10.40;99.90;;;;;;5085616;28;20120;-62
2024/02/05 02:08:42;;;;;;;24.85;4.85;;;10.40;99.90;;;;;;5094475;28;20040;-62
2024/02/05 02:11:09;;;;;;;30.63;5.13;;;10.40;99.90;;;;;;5097310;28;20487;-62
2024/02/05 02:13:36;;;;;;;28.17;6.53;;;10.50;99.90;;;;;;5091734;28;20044;-62
2024/02/05 02:16:04;;;;;;;25.67;4.75;;;10.50;99.90;;;;;;5097570;28;20067;-62
2024/02/05 02:18:31;;;;;;;23.30;4.07;;;10.50;99.90;;;;;;5086818;28;20075;-62
2024/02/05 02:20:58;;;;;;;27.25;5.32;;;10.50;99.90;;;;;;5085828;28;20054;-62
2024/02/05 02:23:29;;;;;;;31.85;4.72;;;10.50;99.90;;;;;;5093883;28;20052;-62
2024/02/05 02:25:57;;;;;;;17.65;4.00;;;10.40;99.90;;;;;;5090938;28;20119;-62
2024/02/05 02:28:24;;;;;;;21.88;4.90;;;10.40;99.90;;;;;;5093998;28;20048;-62
2024/02/05 02:30:52;;;;;;;19.92;4.32;;;10.40;99.90;;;;;;5101217;28;20131;-62
2024/02/05 02:33:42;;;;;;;23.27;3.63;;;10.40;99.90;;;;;;5079110;28;20039;-62
2024/02/05 02:36:10;;;;;;;26.85;4.13;;;10.30;99.90;;;;;;5094275;28;20572;-62
2024/02/05 02:38:55;;;;;;;27.60;5.72;;;10.30;99.90;;;;;;5101585;28;20334;-62
2024/02/05 02:41:24;;;;;;;30.05;4.90;;;10.30;99.90;;;;;;5094167;28;20051;-62
2024/02/05 02:44:00;;;;;;;20.80;4.10;;;10.30;99.90;;;;;;5103558;28;20104;-62
2024/02/05 02:46:28;;;;;;;16.90;3.80;;;10.20;99.90;;;;;;5097515;28;20584;-62
2024/02/05 02:48:55;;;;;;;31.83;5.50;;;10.20;99.90;;;;;;5102103;28;20039;-62
2024/02/05 02:51:23;;;;;;;23.58;4.10;;;10.30;99.90;;;;;;5097353;27;20054;-62
2024/02/05 02:53:49;;;;;;;32.35;6.13;;;10.20;99.90;;;;;;5104795;28;20095;-62
2024/02/05 02:56:16;;;;;;;21.55;4.45;;;10.20;99.90;;;;;;5099273;28;20044;-62
2024/02/05 02:58:43;;;;;;;27.83;6.57;;;10.10;99.90;;;;;;5103733;28;20413;-62
2024/02/05 03:01:10;;;;;;;24.27;5.38;;;10.10;99.90;;;;;;5104204;28;20094;-62
2024/02/05 03:03:37;;;;;;;24.15;4.05;;;10.10;99.90;;;;;;5106340;28;20047;-62
2024/02/05 03:06:04;;;;;;;18.33;3.00;;;10.10;99.90;;;;;;5103120;28;20036;-62
2024/02/05 03:08:31;;;;;;;27.52;6.45;;;10.10;99.90;;;;;;5093543;28;20131;-62
2024/02/05 03:10:58;;;;;;;32.67;4.25;;;10.10;99.90;;;;;;5099051;28;20665;-63
2024/02/05 03:13:25;;;;;;;25.55;5.57;;;10.10;99.90;;;;;;5104751;28;20117;-62
2024/02/05 03:15:52;;;;;;;42.35;8.57;;;10.00;99.90;;;;;;5100696;28;20048;-61
2024/02/05 03:18:20;;;;;;;25.08;3.28;;;10.00;99.90;;;;;;5105837;28;20087;-62
2024/02/05 03:20:47;;;;;;;23.45;3.60;;;10.00;99.90;;;;;;5099492;28;20047;-62
2024/02/05 03:23:14;;;;;;;14.77;3.95;;;10.00;99.90;;;;;;5098563;28;20047;-62
2024/02/05 03:25:41;;;;;;;21.77;3.95;;;9.90;99.90;;;;;;5099766;28;20086;-62
2024/02/05 03:28:08;;;;;;;26.30;4.35;;;9.90;99.90;;;;;;5100212;28;20516;-62
2024/02/05 03:30:36;;;;;;;28.17;4.60;;;9.90;99.90;;;;;;5100728;28;20058;-62
2024/02/05 03:33:04;;;;;;;19.90;3.92;;;9.90;99.90;;;;;;5097821;28;20075;-61
2024/02/05 03:35:32;;;;;;;14.48;3.55;;;9.90;99.90;;;;;;5104029;28;20126;-61
2024/02/05 03:37:59;;;;;;;14.80;3.72;;;9.90;99.90;;;;;;5101190;28;20179;-61
2024/02/05 03:40:26;;;;;;;29.35;5.05;;;9.90;99.90;;;;;;5097420;28;20043;-61
2024/02/05 03:42:53;;;;;;;21.25;3.22;;;9.80;99.90;;;;;;5105349;28;20472;-61
2024/02/05 03:45:20;;;;;;;19.90;3.47;;;9.80;99.90;;;;;;5101299;28;20043;-61
2024/02/05 03:47:47;;;;;;;21.83;3.88;;;9.80;99.90;;;;;;5098196;27;20044;-61
2024/02/05 03:50:14;;;;;;;19.02;3.47;;;9.70;99.90;;;;;;5102555;28;20078;-61
2024/02/05 03:52:45;;;;;;;35.33;5.40;;;9.70;99.90;;;;;;5077516;28;20051;-64
2024/02/05 03:55:13;;;;;;;15.38;3.42;;;9.70;99.90;;;;;;5101827;28;20059;-63
2024/02/05 03:57:44;;;;;;;17.63;3.65;;;9.70;99.90;;;;;;5103024;28;20039;-62
2024/02/05 04:00:11;;;;;;;21.85;5.20;;;9.70;99.90;;;;;;5098790;27;20070;-63
2024/02/05 04:02:38;;;;;;;16.58;3.75;;;9.70;99.90;;;;;;5100936;28;20051;-62
2024/02/05 04:05:08;;;;;;;25.30;3.25;;;9.60;99.90;;;;;;5103645;28;20047;-62
2024/02/05 04:07:38;;;;;;;22.42;3.40;;;9.70;99.90;;;;;;5105726;28;20120;-62
2024/02/05 04:10:05;;;;;;;22.25;4.63;;;9.60;99.90;;;;;;5105258;28;20055;-63
2024/02/05 04:12:32;;;;;;;26.30;4.70;;;9.60;99.90;;;;;;5094500;28;20177;-62
2024/02/05 04:15:00;;;;;;;23.23;4.32;;;9.60;99.90;;;;;;5092563;28;20480;-62
2024/02/05 04:17:26;;;;;;;17.05;5.53;;;9.60;99.90;;;;;;5094312;28;20648;-62
2024/02/05 04:19:53;;;;;;;18.50;3.42;;;9.60;99.90;;;;;;5095822;28;20054;-62
2024/02/05 04:22:20;;;;;;;18.23;3.95;;;9.60;99.90;;;;;;5098348;28;20569;-62
2024/02/05 04:24:47;;;;;;;19.80;4.47;;;9.60;99.90;;;;;;5095789;28;20071;-62
2024/02/05 04:27:14;;;;;;;16.98;3.92;;;9.60;99.90;;;;;;5095318;28;20040;-62
2024/02/05 04:29:41;;;;;;;23.80;6.90;;;9.60;99.90;;;;;;5106328;28;20518;-63
2024/02/05 04:32:09;;;;;;;18.42;4.15;;;9.60;99.90;;;;;;5099312;28;20100;-62
2024/02/05 04:34:35;;;;;;;16.60;3.47;;;9.60;99.90;;;;;;5096775;28;20118;-62
2024/02/05 04:37:03;;;;;;;21.20;3.85;;;9.60;99.90;;;;;;5094419;28;20043;-63
2024/02/05 04:39:30;;;;;;;15.65;3.53;;;9.50;99.90;;;;;;5104677;28;20043;-62
2024/02/05 04:41:56;;;;;;;22.42;4.22;;;9.50;99.90;;;;;;5096195;28;20055;-62
2024/02/05 04:44:23;;;;;;;19.98;4.70;;;9.50;99.90;;;;;;5099811;28;20063;-62
2024/02/05 04:46:50;;;;;;;19.42;3.30;;;9.40;99.90;;;;;;5090406;28;20043;-62
2024/02/05 04:49:18;;;;;;;18.95;4.47;;;9.40;99.90;;;;;;5103727;28;20056;-62
2024/02/05 04:51:49;;;;;;;20.38;3.47;;;9.40;99.90;;;;;;5099963;28;20066;-62
2024/02/05 04:54:16;;;;;;;20.70;4.35;;;9.40;99.90;;;;;;5095051;28;20121;-62
2024/02/05 04:56:43;;;;;;;21.40;4.97;;;9.40;99.90;;;;;;5088316;28;20036;-62
2024/02/05 04:59:10;;;;;;;15.15;3.08;;;9.40;99.90;;;;;;5094431;28;20097;-62
2024/02/05 05:01:37;;;;;;;10.57;2.42;;;9.40;99.90;;;;;;5098779;28;20496;-62
2024/02/05 05:04:04;;;;;;;15.50;3.00;;;9.40;99.90;;;;;;5099340;28;20044;-62
2024/02/05 05:06:31;;;;;;;14.57;3.15;;;9.40;99.90;;;;;;5104869;28;20055;-62
2024/02/05 05:08:58;;;;;;;18.08;3.63;;;9.40;99.90;;;;;;5097917;28;20087;-62
2024/02/05 05:11:25;;;;;;;14.00;3.25;;;9.40;99.90;;;;;;5098339;28;20063;-62
2024/02/05 05:13:52;;;;;;;19.25;3.95;;;9.40;99.90;;;;;;5094857;28;20048;-62
2024/02/05 05:16:19;;;;;;;23.20;4.45;;;9.40;99.90;;;;;;5102514;28;20613;-62
2024/02/05 05:18:46;;;;;;;21.65;3.40;;;9.50;99.90;;;;;;5098957;28;20055;-61
2024/02/05 05:21:13;;;;;;;18.50;3.60;;;9.50;99.90;;;;;;5102793;28;20096;-61
2024/02/05 05:23:40;;;;;;;11.00;3.70;;;9.50;99.90;;;;;;5097715;28;20233;-62
2024/02/05 05:26:07;;;;;;;15.68;4.65;;;9.50;99.90;;;;;;5094639;28;20075;-61
2024/02/05 05:28:38;;;;;;;23.33;5.22;;;9.40;99.90;;;;;;5103920;28;20674;-61
2024/02/05 05:31:05;;;;;;;24.33;4.50;;;9.40;99.90;;;;;;5098268;28;20074;-61
2024/02/05 05:33:32;;;;;;;18.40;5.55;;;9.30;99.90;;;;;;5091174;28;20051;-62
2024/02/05 05:35:59;;;;;;;12.30;3.25;;;9.40;99.90;;;;;;5099433;28;20436;-62
2024/02/05 05:38:26;;;;;;;23.05;4.25;;;9.30;99.90;;;;;;5102434;28;20109;-61
2024/02/05 05:40:53;;;;;;;16.70;3.58;;;9.30;99.90;;;;;;5097008;28;20109;-61
2024/02/05 05:43:20;;;;;;;19.77;3.53;;;9.30;99.90;;;;;;5102614;28;20063;-61
2024/02/05 05:45:47;;;;;;;20.13;6.30;;;9.30;99.90;;;;;;5093466;28;20048;-62
2024/02/05 05:48:14;;;;;;;17.88;4.28;;;9.40;99.90;;;;;;5098248;28;20137;-62
2024/02/05 05:50:41;;;;;;;20.73;3.72;;;9.40;99.90;;;;;;5097462;28;20123;-62
2024/02/05 05:53:08;;;;;;;22.58;3.45;;;9.40;99.90;;;;;;5099440;28;20043;-61
2024/02/05 05:55:35;;;;;;;19.20;3.20;;;9.40;99.90;;;;;;5093357;28;20055;-62
2024/02/05 05:58:02;;;;;;;29.15;3.70;;;9.40;99.90;;;;;;5104385;28;20059;-62
2024/02/05 06:00:29;;;;;;;21.13;4.15;;;9.40;99.90;;;;;;5093115;28;20036;-61
2024/02/05 06:02:56;;;;;;;15.75;4.60;;;9.40;99.90;;;;;;5096969;28;20082;-64
2024/02/05 06:05:23;;;;;;;20.70;3.83;;;9.40;99.90;;;;;;5101208;28;20048;-62
2024/02/05 06:07:50;;;;;;;20.85;4.50;;;9.40;99.90;;;;;;5097303;28;20044;-61
2024/02/05 06:10:18;;;;;;;21.92;3.95;;;9.40;99.90;;;;;;5097792;28;20118;-62
2024/02/05 06:12:45;;;;;;;26.23;6.13;;;9.40;99.90;;;;;;5100195;28;20504;-61
2024/02/05 06:15:14;;;;;;;14.13;4.32;;;9.50;99.90;;;;;;5093875;28;20086;-61
2024/02/05 06:17:41;;;;;;;17.00;3.50;;;9.50;99.90;;;;;;5103914;28;20047;-62
2024/02/05 06:20:08;;;;;;;21.73;3.38;;;9.40;99.90;;;;;;5086035;28;20047;-61
2024/02/05 06:22:40;;;;;;;19.23;3.80;;;9.40;99.90;;;;;;5096764;28;20047;-62
2024/02/05 06:25:07;;;;;;;19.52;4.60;;;9.40;99.90;;;;;;5102971;28;20421;-62
2024/02/05 06:27:34;;;;;;;24.85;4.13;;;9.40;99.90;;;;;;5100139;28;20101;-62
2024/02/05 06:30:01;;;;;;;21.77;3.83;;;9.30;99.90;;;;;;5106645;28;20051;-61
2024/02/05 06:32:28;;;;;;;22.33;3.83;;;9.30;99.90;;;;;;5099370;28;20597;-62
2024/02/05 06:34:55;;;;;;;26.17;3.17;;;9.30;99.90;;;;;;5099535;28;20056;-62
2024/02/05 06:37:22;;;;;;;24.08;5.05;;;9.30;99.90;;;;;;5100317;28;20130;-64
2024/02/05 06:39:49;;;;;;;18.55;3.38;;;9.30;99.90;;;;;;5094014;28;20074;-62
2024/02/05 06:42:16;;;;;;;22.55;3.92;;;9.30;99.90;;;;;;5102275;28;20567;-61
2024/02/05 06:44:45;;;;;;;20.02;4.50;;;9.30;99.90;;;;;;5094913;28;20071;-60
2024/02/05 06:47:12;;;;;;;18.77;3.33;;;9.40;99.90;;;;;;5100553;28;20052;-62
2024/02/05 06:49:39;;;;;;;22.10;4.63;;;9.40;99.90;;;;;;5105205;28;20127;-62
2024/02/05 06:52:06;;;;;;;20.58;4.22;;;9.40;99.90;;;;;;5100130;28;20046;-62
2024/02/05 06:54:33;;;;;;;18.40;3.92;;;9.30;99.90;;;;;;5101830;28;20048;-61
2024/02/05 06:57:00;;;;;;;20.27;4.63;;;9.30;99.90;;;;;;5092523;28;20048;-61
2024/02/05 06:59:27;;;;;;;17.55;4.00;;;9.30;99.90;;;;;;5093998;28;20047;-63
2024/02/05 07:01:54;;;;;;;18.92;3.47;;;9.30;99.90;;;;;;5092661;28;20040;-62
2024/02/05 07:04:21;;;;;;;17.88;3.70;;;9.30;99.90;;;;;;5103683;28;20048;-61
2024/02/05 07:06:49;;;;;;;14.95;3.33;;;9.30;99.90;;;;;;5096490;28;20173;-62
2024/02/05 07:09:16;;;;;;;14.82;3.45;;;9.30;99.90;;;;;;5100212;28;20117;-61
2024/02/05 07:11:43;;;;;;;17.00;3.65;;;9.30;99.90;;;;;;5098492;28;20140;-62
2024/02/05 07:14:10;;;;;;;18.98;3.50;;;9.20;99.90;;;;;;5101894;28;20454;-61
2024/02/05 07:16:37;;;;;;;22.98;3.67;;;9.20;99.90;;;;;;5097370;28;20105;-61
2024/02/05 07:19:03;;;;;;;22.92;3.13;;;9.20;99.90;;;;;;5096566;28;20051;-61
2024/02/05 07:21:30;;;;;;;24.13;3.80;;;9.30;99.90;;;;;;5092056;28;20507;-61
2024/02/05 07:23:57;;;;;;;31.85;5.20;;;9.20;99.90;;;;;;5096320;28;20044;-61
2024/02/05 07:26:24;;;;;;;19.85;4.15;;;9.30;99.90;;;;;;5096120;28;20040;-61
2024/02/05 07:28:51;;;;;;;17.58;3.67;;;9.30;99.90;;;;;;5093231;28;20051;-61
2024/02/05 07:31:17;;;;;;;20.75;4.05;;;9.30;99.90;;;;;;5095413;28;20059;-61
2024/02/05 07:33:44;;;;;;;18.30;4.13;;;9.30;99.90;;;;;;5096365;28;20043;-60
2024/02/05 07:36:11;;;;;;;18.70;3.88;;;9.30;99.90;;;;;;5094162;28;20117;-60
2024/02/05 07:38:39;;;;;;;23.92;3.60;;;9.30;99.90;;;;;;5095670;28;20113;-60
2024/02/05 07:41:06;;;;;;;25.30;3.47;;;9.30;99.90;;;;;;5087144;28;20684;-60
2024/02/05 07:43:37;;;;;;;15.07;3.85;;;9.20;99.90;;;;;;5094502;28;20047;-60
2024/02/05 07:46:04;;;;;;;19.90;3.58;;;9.20;99.90;;;;;;5093889;28;20052;-59
2024/02/05 07:48:31;;;;;;;20.75;3.97;;;9.20;99.90;;;;;;5094837;28;20051;-60
2024/02/05 07:51:00;;;;;;;24.08;3.45;;;9.20;99.90;;;;;;5098812;28;20048;-60
2024/02/05 07:53:26;;;;;;;17.35;3.85;;;9.20;99.90;;;;;;5100754;28;20040;-60
2024/02/05 07:55:53;;;;;;;25.45;4.72;;;9.10;99.90;;;;;;5099316;28;20052;-60
2024/02/05 07:58:21;;;;;;;19.08;3.50;;;9.20;99.90;;;;;;5101621;28;20085;-61
2024/02/05 08:00:49;;;;;;;16.38;4.72;;;9.20;99.90;;;;;;5089461;28;20044;-61
2024/02/05 08:03:16;;;;;;;20.83;5.30;;;9.10;99.90;;;;;;5079317;28;20056;-60
2024/02/05 08:05:42;;;;;;;29.15;5.85;;;9.20;99.90;;;;;;5097314;28;20080;-61
2024/02/05 08:08:09;;;;;;;26.83;5.03;;;9.10;99.90;;;;;;5098546;28;20609;-61
2024/02/05 08:10:36;;;;;;;15.02;3.42;;;9.10;99.90;;;;;;5096967;28;20082;-61
2024/02/05 08:13:04;;;;;;;16.60;4.43;;;9.10;99.90;;;;;;5097011;28;20074;-61
2024/02/05 08:15:31;;;;;;;13.95;2.63;;;9.10;99.90;;;;;;5092604;28;20058;-60
2024/02/05 08:17:57;;;;;;;26.42;6.85;;;9.20;99.90;;;;;;5100190;28;20046;-61
2024/02/05 08:20:24;;;;;;;17.75;3.47;;;9.20;99.90;;;;;;5097511;28;20453;-60
2024/02/05 08:22:52;;;;;;;10.82;3.08;;;9.20;99.90;;;;;;5089014;28;20044;-60
2024/02/05 08:25:19;;;;;;;18.55;3.38;;;9.30;99.90;;;;;;5096963;28;20051;-59
2024/02/05 08:27:46;;;;;;;26.08;4.07;;;9.20;99.90;;;;;;5095385;28;20130;-60
2024/02/05 08:30:13;;;;;;;26.20;3.72;;;9.30;99.90;;;;;;5093589;28;20126;-60
2024/02/05 08:32:40;;;;;;;14.18;5.63;;;9.20;99.90;;;;;;5095787;28;20123;-60
2024/02/05 08:35:07;;;;;;;29.45;4.03;;;9.30;99.90;;;;;;5082458;28;20552;-60
2024/02/05 08:37:34;;;;;;;19.63;6.32;;;9.40;99.90;;;;;;5082868;28;20818;-60
2024/02/05 08:40:01;;;;;;;20.27;3.80;;;9.30;99.90;;;;;;5103307;28;20055;-59
2024/02/05 08:42:28;;;;;;;18.13;4.10;;;9.30;99.90;;;;;;5101953;28;20055;-60
2024/02/05 08:44:59;;;;;;;23.17;4.35;;;9.20;99.90;;;;;;5087543;28;20059;-60
2024/02/05 08:47:30;;;;;;;19.88;4.22;;;9.20;99.90;;;;;;5089126;28;20130;-60
2024/02/05 08:49:57;;;;;;;14.82;3.08;;;9.30;99.90;;;;;;5096481;28;20126;-61
2024/02/05 08:52:24;;;;;;;20.63;4.47;;;9.40;99.90;;;;;;5076041;28;20048;-60
2024/02/05 08:54:51;;;;;;;29.48;3.92;;;9.40;99.90;;;;;;5087756;28;20088;-61
2024/02/05 08:57:18;;;;;;;18.95;3.47;;;9.40;99.90;;;;;;5094320;28;20063;-60
2024/02/05 08:59:45;;;;;;;20.27;3.78;;;9.40;99.90;;;;;;5090435;28;20044;-61
2024/02/05 09:02:14;;;;;;;15.82;3.22;;;9.40;99.90;;;;;;5096130;28;20070;-60
2024/02/05 09:04:42;;;;;;;24.42;4.97;;;9.50;99.90;;;;;;5102414;28;20167;-61
2024/02/05 09:07:09;;;;;;;8.88;3.05;;;9.50;99.90;;;;;;5098432;28;20043;-61
2024/02/05 09:09:39;;;;;;;16.58;3.70;;;9.50;99.90;;;;;;5095884;28;20492;-61
2024/02/05 09:12:07;;;;;;;28.15;4.40;;;9.50;99.90;;;;;;5096073;28;20059;-61
2024/02/05 09:14:35;;;;;;;18.52;3.78;;;9.50;99.90;;;;;;5097540;28;20044;-61
2024/02/05 09:17:03;;;;;;;22.42;5.18;;;9.60;99.90;;;;;;5096195;28;20052;-61
2024/02/05 09:19:32;;;;;;;23.08;5.38;;;9.60;99.90;;;;;;5102542;28;20246;-61
2024/02/05 09:21:59;;;;;;;11.48;3.17;;;9.70;99.90;;;;;;5096124;28;20146;-61
2024/02/05 09:24:26;;;;;;;14.82;4.05;;;9.70;99.90;;;;;;5083156;28;20047;-61
2024/02/05 09:26:53;;;;;;;25.88;4.43;;;9.70;99.90;;;;;;5090369;28;20055;-61
2024/02/05 09:29:21;;;;;;;24.23;5.53;;;9.70;99.90;;;;;;5101402;28;20130;-61
2024/02/05 09:31:49;;;;;;;32.00;6.97;;;9.70;99.90;;;;;;5095845;28;20090;-61
2024/02/05 09:34:16;;;;;;;26.73;5.97;;;9.70;99.90;;;;;;5096939;28;20429;-61
2024/02/05 09:36:44;;;;;;;23.67;4.70;;;9.70;99.90;;;;;;5094892;28;20069;-61
2024/02/05 09:39:11;;;;;;;18.77;3.03;;;9.70;99.90;;;;;;5094119;28;20081;-61
2024/02/05 09:41:39;;;;;;;19.92;5.05;;;9.70;99.90;;;;;;5094711;28;20043;-61
2024/02/05 09:44:08;;;;;;;19.08;4.07;;;9.80;99.90;;;;;;5097455;28;20047;-61
2024/02/05 09:46:36;;;;;;;15.00;3.95;;;9.80;99.90;;;;;;5089520;28;20551;-61
2024/02/05 09:49:03;;;;;;;18.85;3.63;;;9.80;99.90;;;;;;5099477;28;20043;-61
2024/02/05 09:51:32;;;;;;;17.38;4.53;;;9.90;99.90;;;;;;5101926;28;20059;-61
2024/02/05 09:54:00;;;;;;;19.27;3.33;;;9.90;99.90;;;;;;5106192;28;20480;-61
2024/02/05 09:56:43;;;;;;;;;;;10.00;99.90;;;;;;5103483;28;20131;-61
2024/02/05 09:59:10;;;;;;;11.77;3.63;;;10.00;99.90;;;;;;5098775;28;20598;-61
2024/02/05 10:01:38;;;;;;;16.20;3.75;;;10.00;99.90;;;;;;5105956;28;20476;-61
2024/02/05 10:04:09;;;;;;;22.45;5.05;;;10.10;99.90;;;;;;5097712;28;20515;-60
2024/02/05 10:06:39;;;;;;;20.67;4.95;;;10.30;99.90;;;;;;5092546;28;20090;-62
2024/02/05 10:09:07;;;;;;;24.23;4.20;;;10.30;99.90;;;;;;5101639;28;20046;-61
2024/02/05 10:11:41;;;;;;;23.42;3.90;;;10.30;99.90;;;;;;5103887;28;20063;-60
2024/02/05 10:14:08;;;;;;;27.88;3.75;;;10.30;99.90;;;;;;5099421;28;20047;-61
2024/02/05 10:16:35;;;;;;;18.67;3.25;;;10.30;99.90;;;;;;5105217;28;20389;-61
2024/02/05 10:19:04;;;;;;;20.02;4.65;;;10.30;99.90;;;;;;5104668;28;20104;-61
2024/02/05 10:21:32;;;;;;;15.00;3.60;;;10.30;99.90;;;;;;5089183;28;20056;-61
2024/02/05 10:23:59;;;;;;;18.65;4.50;;;10.40;99.90;;;;;;5098675;28;20040;-61
2024/02/05 10:26:26;;;;;;;12.70;3.17;;;10.50;99.90;;;;;;5103322;28;20120;-61
2024/02/05 10:28:53;;;;;;;17.98;4.13;;;10.40;99.90;;;;;;5099259;28;20043;-64
2024/02/05 10:31:20;;;;;;;27.00;3.35;;;10.50;99.90;;;;;;5102423;28;20052;-61
2024/02/05 10:33:48;;;;;;;19.25;3.40;;;10.50;99.90;;;;;;5088099;28;20048;-61
2024/02/05 10:36:19;;;;;;;22.05;3.45;;;10.50;99.90;;;;;;5086933;28;20143;-61
2024/02/05 10:38:46;;;;;;;17.45;2.85;;;10.50;99.90;;;;;;5099186;28;20433;-61
2024/02/05 10:41:14;;;;;;;24.25;3.45;;;10.60;99.90;;;;;;5100634;28;20051;-61
2024/02/05 10:43:45;;;;;;;15.27;3.13;;;10.70;99.90;;;;;;5102013;28;20044;-61
2024/02/05 10:46:12;;;;;;;19.20;2.58;;;10.70;99.90;;;;;;5078512;28;20071;-60
2024/02/05 10:48:41;;;;;;;20.98;3.08;;;10.70;99.90;;;;;;5105372;28;20075;-60
2024/02/05 10:51:08;;;;;;;19.33;3.28;;;10.80;99.90;;;;;;5082751;28;20094;-60
2024/02/05 10:53:35;;;;;;;15.50;4.68;;;10.80;99.90;;;;;;5095307;28;20113;-61
2024/02/05 10:56:02;;;;;;;14.10;3.47;;;10.80;99.90;;;;;;5096519;28;20136;-61
2024/02/05 10:58:29;;;;;;;14.30;2.72;;;10.90;99.90;;;;;;5106639;28;20040;-61
2024/02/05 11:00:58;;;;;;;12.35;2.50;;;10.90;99.90;;;;;;5098930;28;20052;-62
2024/02/05 11:03:25;;;;;;;12.13;2.50;;;10.90;99.90;;;;;;5098806;28;20436;-61
2024/02/05 11:05:53;;;;;;;6.63;2.28;;;11.00;99.90;;;;;;5086131;28;20036;-61
2024/02/05 11:08:21;;;;;;;10.02;1.75;;;10.90;99.90;;;;;;5102976;28;20658;-61
2024/02/05 11:10:49;;;;;;;6.00;1.80;;;11.10;99.90;;;;;;5095862;28;20044;-61
2024/02/05 11:13:31;;;;;;;6.60;1.48;;;11.10;99.90;;;;;;5105096;28;20047;-61
2024/02/05 11:15:58;;;;;;;9.77;2.30;;;11.10;99.90;;;;;;5102027;28;20052;-62
2024/02/05 11:19:05;;;;;;;8.80;1.30;;;11.10;99.90;;;;;;5097028;28;20092;-61
2024/02/05 11:21:38;;;;;;;7.63;1.55;;;11.10;99.90;;;;;;5029785;28;20263;-61
2024/02/05 11:24:05;;;;;;;5.72;1.05;;;11.10;99.90;;;;;;5063879;28;20047;-60
2024/02/05 11:26:32;;;;;;;2.50;0.88;;;11.00;99.90;;;;;;5099177;28;20043;-61
2024/02/05 11:28:59;;;;;;;2.00;0.80;;;11.00;99.90;;;;;;5096182;28;20040;-62
2024/02/05 11:31:26;;;;;;;4.03;0.80;;;11.10;99.90;;;;;;5094937;28;20237;-61
2024/02/05 11:34:12;;;;;;;4.03;0.65;;;11.10;99.90;;;;;;5093072;28;20658;-61
2024/02/05 11:36:42;;;;;;;7.35;1.50;;;11.10;99.90;;;;;;5091618;28;20084;-61
2024/02/05 11:39:09;;;;;;;2.40;0.80;;;11.20;99.90;;;;;;5087513;28;20047;-61
2024/02/05 11:41:36;;;;;;;1.55;0.60;;;11.20;99.90;;;;;;5091283;28;20403;-61
2024/02/05 11:44:03;;;;;;;2.22;0.63;;;11.30;99.90;;;;;;5103592;28;20282;-61
2024/02/05 11:46:30;;;;;;;11.27;1.20;;;11.20;99.90;;;;;;5104366;28;20071;-61
2024/02/05 11:48:58;;;;;;;4.18;0.60;;;11.30;99.90;;;;;;5096938;28;20504;-61
2024/02/05 11:51:25;;;;;;;4.57;0.63;;;11.30;99.90;;;;;;5095060;28;20055;-61
2024/02/05 11:53:53;;;;;;;2.28;0.70;;;11.30;99.90;;;;;;5097523;28;20098;-61
2024/02/05 11:56:20;;;;;;;3.50;1.30;;;11.20;99.90;;;;;;5098090;28;20048;-61
2024/02/05 11:58:47;;;;;;;1.48;0.50;;;11.20;99.90;;;;;;5100682;28;20047;-61
2024/02/05 12:01:15;;;;;;;2.15;0.75;;;11.20;99.90;;;;;;5073032;28;20205;-61
2024/02/05 12:03:42;;;;;;;1.05;0.55;;;11.30;99.90;;;;;;5072101;28;20062;-61
2024/02/05 12:06:09;;;;;;;3.33;1.00;;;11.40;99.90;;;;;;5102680;28;20054;-60
2024/02/05 12:08:36;;;;;;;1.42;0.60;;;11.40;99.90;;;;;;5102679;28;20484;-61
2024/02/05 12:11:03;;;;;;;3.03;0.60;;;11.50;99.90;;;;;;5106047;28;20044;-60
2024/02/05 12:13:33;;;;;;;2.78;0.73;;;11.50;99.90;;;;;;5093857;28;20097;-61
2024/02/05 12:16:11;;;;;;;2.30;0.50;;;11.50;99.90;;;;;;5101264;28;20126;-61
2024/02/05 12:18:39;;;;;;;0.77;0.68;;;11.40;99.90;;;;;;5098787;28;20113;-61
2024/02/05 12:21:06;;;;;;;0.30;0.30;;;11.50;99.90;;;;;;5104784;28;20088;-61
2024/02/05 12:23:38;;;;;;;3.20;0.68;;;11.60;99.90;;;;;;5096395;28;20113;-61
2024/02/05 12:26:05;;;;;;;0.70;0.50;;;11.60;99.90;;;;;;5093334;28;20058;-61
2024/02/05 12:28:38;;;;;;;1.60;0.40;;;11.60;99.90;;;;;;5091800;28;20043;-61
2024/02/05 12:31:05;;;;;;;1.10;0.47;;;11.50;99.90;;;;;;5097294;28;20105;-61
2024/02/05 12:33:31;;;;;;;0.55;0.50;;;11.40;99.90;;;;;;5098185;28;20080;-61
2024/02/05 12:36:02;;;;;;;3.03;0.40;;;11.40;99.90;;;;;;5103971;28;20083;-61
2024/02/05 12:38:29;;;;;;;1.63;0.45;;;11.40;99.90;;;;;;5098114;28;20036;-61
2024/02/05 12:40:57;;;;;;;1.38;0.68;;;11.40;99.90;;;;;;5099870;28;20059;-61
2024/02/05 12:43:26;;;;;;;0.85;0.50;;;11.40;99.90;;;;;;5097631;28;20040;-61
2024/02/05 12:45:53;;;;;;;4.10;0.50;;;11.50;99.90;;;;;;5091319;28;20127;-61